sensor_id;sensor_type;location;lat;lon;timestamp;P1;durP1;ratioP1;P2;durP2;ratioP2
34832;SDS011;55941;50.800;4.342;2022-08-19T00:01:48;17.55;;;9.43;;
34832;SDS011;55941;50.800;4.342;2022-08-19T00:04:17;13.25;;;10.48;;
34832;SDS011;55941;50.800;4.342;2022-08-19T00:06:50;16.90;;;10.55;;
34832;SDS011;55941;50.800;4.342;2022-08-19T00:09:17;16.17;;;11.20;;
34832;SDS011;55941;50.800;4.342;2022-08-19T00:11:44;19.13;;;12.02;;
34832;SDS011;55941;50.800;4.342;2022-08-19T00:14:12;14.95;;;11.63;;
34832;SDS011;55941;50.800;4.342;2022-08-19T00:16:44;17.48;;;12.40;;
34832;SDS011;55941;50.800;4.342;2022-08-19T00:19:11;18.23;;;13.93;;
34832;SDS011;55941;50.800;4.342;2022-08-19T00:21:37;25.48;;;17.27;;
34832;SDS011;55941;50.800;4.342;2022-08-19T00:24:06;37.60;;;18.27;;
34832;SDS011;55941;50.800;4.342;2022-08-19T00:26:34;21.35;;;16.77;;
34832;SDS011;55941;50.800;4.342;2022-08-19T00:29:00;26.38;;;18.23;;
34832;SDS011;55941;50.800;4.342;2022-08-19T00:31:27;27.58;;;19.25;;
34832;SDS011;55941;50.800;4.342;2022-08-19T00:33:53;29.67;;;21.23;;
34832;SDS011;55941;50.800;4.342;2022-08-19T00:36:20;27.88;;;20.80;;
34832;SDS011;55941;50.800;4.342;2022-08-19T00:38:46;29.15;;;20.02;;
34832;SDS011;55941;50.800;4.342;2022-08-19T00:41:13;26.98;;;19.02;;
34832;SDS011;55941;50.800;4.342;2022-08-19T00:43:41;25.45;;;19.50;;
34832;SDS011;55941;50.800;4.342;2022-08-19T00:46:10;27.77;;;21.77;;
34832;SDS011;55941;50.800;4.342;2022-08-19T00:48:43;29.33;;;23.45;;
34832;SDS011;55941;50.800;4.342;2022-08-19T00:51:09;34.15;;;24.02;;
34832;SDS011;55941;50.800;4.342;2022-08-19T00:53:35;33.55;;;25.92;;
34832;SDS011;55941;50.800;4.342;2022-08-19T00:56:02;36.50;;;25.85;;
34832;SDS011;55941;50.800;4.342;2022-08-19T00:58:32;40.90;;;26.52;;
34832;SDS011;55941;50.800;4.342;2022-08-19T01:01:00;33.28;;;24.02;;
34832;SDS011;55941;50.800;4.342;2022-08-19T01:03:28;32.67;;;25.52;;
34832;SDS011;55941;50.800;4.342;2022-08-19T01:05:55;32.92;;;25.73;;
34832;SDS011;55941;50.800;4.342;2022-08-19T01:08:21;35.05;;;24.80;;
34832;SDS011;55941;50.800;4.342;2022-08-19T01:10:49;32.45;;;25.90;;
34832;SDS011;55941;50.800;4.342;2022-08-19T01:13:21;38.78;;;26.80;;
34832;SDS011;55941;50.800;4.342;2022-08-19T01:15:51;36.67;;;27.42;;
34832;SDS011;55941;50.800;4.342;2022-08-19T01:18:20;36.33;;;28.65;;
34832;SDS011;55941;50.800;4.342;2022-08-19T01:20:47;36.28;;;27.17;;
34832;SDS011;55941;50.800;4.342;2022-08-19T01:23:13;32.72;;;26.05;;
34832;SDS011;55941;50.800;4.342;2022-08-19T01:25:45;33.35;;;25.45;;
34832;SDS011;55941;50.800;4.342;2022-08-19T01:28:21;39.33;;;25.55;;
34832;SDS011;55941;50.800;4.342;2022-08-19T01:30:50;35.10;;;25.02;;
34832;SDS011;55941;50.800;4.342;2022-08-19T01:33:17;35.13;;;25.52;;
34832;SDS011;55941;50.800;4.342;2022-08-19T01:35:45;30.98;;;24.63;;
34832;SDS011;55941;50.800;4.342;2022-08-19T01:38:23;32.03;;;24.35;;
34832;SDS011;55941;50.800;4.342;2022-08-19T01:40:51;33.92;;;25.10;;
34832;SDS011;55941;50.800;4.342;2022-08-19T01:43:17;37.53;;;24.45;;
34832;SDS011;55941;50.800;4.342;2022-08-19T01:45:44;33.65;;;25.65;;
34832;SDS011;55941;50.800;4.342;2022-08-19T01:48:10;33.67;;;25.30;;
34832;SDS011;55941;50.800;4.342;2022-08-19T01:50:37;32.30;;;25.40;;
34832;SDS011;55941;50.800;4.342;2022-08-19T01:53:05;35.20;;;26.85;;
34832;SDS011;55941;50.800;4.342;2022-08-19T01:55:36;38.00;;;27.65;;
34832;SDS011;55941;50.800;4.342;2022-08-19T01:58:04;38.03;;;27.55;;
34832;SDS011;55941;50.800;4.342;2022-08-19T02:00:33;43.72;;;29.75;;
34832;SDS011;55941;50.800;4.342;2022-08-19T02:02:59;39.63;;;29.80;;
34832;SDS011;55941;50.800;4.342;2022-08-19T02:05:26;40.72;;;29.58;;
34832;SDS011;55941;50.800;4.342;2022-08-19T02:07:54;30.80;;;26.23;;
34832;SDS011;55941;50.800;4.342;2022-08-19T02:10:22;42.38;;;29.67;;
34832;SDS011;55941;50.800;4.342;2022-08-19T02:12:48;39.88;;;29.48;;
34832;SDS011;55941;50.800;4.342;2022-08-19T02:15:14;38.38;;;30.10;;
34832;SDS011;55941;50.800;4.342;2022-08-19T02:17:41;43.67;;;29.33;;
34832;SDS011;55941;50.800;4.342;2022-08-19T02:20:08;42.22;;;30.65;;
34832;SDS011;55941;50.800;4.342;2022-08-19T02:22:35;41.70;;;30.42;;
34832;SDS011;55941;50.800;4.342;2022-08-19T02:25:01;43.60;;;30.10;;
34832;SDS011;55941;50.800;4.342;2022-08-19T02:27:29;47.83;;;30.73;;
34832;SDS011;55941;50.800;4.342;2022-08-19T02:29:56;41.83;;;29.05;;
34832;SDS011;55941;50.800;4.342;2022-08-19T02:32:22;45.03;;;29.45;;
34832;SDS011;55941;50.800;4.342;2022-08-19T02:34:48;37.55;;;28.25;;
34832;SDS011;55941;50.800;4.342;2022-08-19T02:37:14;45.00;;;29.77;;
34832;SDS011;55941;50.800;4.342;2022-08-19T02:39:58;43.33;;;31.00;;
34832;SDS011;55941;50.800;4.342;2022-08-19T02:42:25;48.60;;;32.20;;
34832;SDS011;55941;50.800;4.342;2022-08-19T02:44:51;47.05;;;31.42;;
34832;SDS011;55941;50.800;4.342;2022-08-19T02:47:17;47.28;;;28.85;;
34832;SDS011;55941;50.800;4.342;2022-08-19T02:49:47;41.05;;;29.00;;
34832;SDS011;55941;50.800;4.342;2022-08-19T02:52:14;43.25;;;28.40;;
34832;SDS011;55941;50.800;4.342;2022-08-19T02:54:41;42.20;;;28.58;;
34832;SDS011;55941;50.800;4.342;2022-08-19T02:57:07;36.13;;;25.90;;
34832;SDS011;55941;50.800;4.342;2022-08-19T02:59:33;33.47;;;24.98;;
34832;SDS011;55941;50.800;4.342;2022-08-19T03:01:59;36.75;;;26.15;;
34832;SDS011;55941;50.800;4.342;2022-08-19T03:04:25;34.58;;;24.42;;
34832;SDS011;55941;50.800;4.342;2022-08-19T03:06:51;35.17;;;25.33;;
34832;SDS011;55941;50.800;4.342;2022-08-19T03:09:17;35.03;;;24.35;;
34832;SDS011;55941;50.800;4.342;2022-08-19T03:11:45;38.55;;;25.52;;
34832;SDS011;55941;50.800;4.342;2022-08-19T03:14:11;37.85;;;25.15;;
34832;SDS011;55941;50.800;4.342;2022-08-19T03:16:45;41.67;;;26.05;;
34832;SDS011;55941;50.800;4.342;2022-08-19T03:19:13;34.13;;;24.67;;
34832;SDS011;55941;50.800;4.342;2022-08-19T03:21:42;36.78;;;23.30;;
34832;SDS011;55941;50.800;4.342;2022-08-19T03:24:10;40.83;;;25.02;;
34832;SDS011;55941;50.800;4.342;2022-08-19T03:26:40;36.03;;;23.10;;
34832;SDS011;55941;50.800;4.342;2022-08-19T03:29:07;35.53;;;23.15;;
34832;SDS011;55941;50.800;4.342;2022-08-19T03:31:35;33.15;;;22.85;;
34832;SDS011;55941;50.800;4.342;2022-08-19T03:34:02;35.35;;;23.98;;
34832;SDS011;55941;50.800;4.342;2022-08-19T03:36:28;39.58;;;24.05;;
34832;SDS011;55941;50.800;4.342;2022-08-19T03:38:57;36.75;;;23.63;;
34832;SDS011;55941;50.800;4.342;2022-08-19T03:41:25;39.42;;;22.75;;
34832;SDS011;55941;50.800;4.342;2022-08-19T03:43:54;39.78;;;24.70;;
34832;SDS011;55941;50.800;4.342;2022-08-19T03:46:21;37.47;;;23.17;;
34832;SDS011;55941;50.800;4.342;2022-08-19T03:48:50;39.60;;;24.27;;
34832;SDS011;55941;50.800;4.342;2022-08-19T03:51:28;42.75;;;25.33;;
34832;SDS011;55941;50.800;4.342;2022-08-19T03:53:56;38.75;;;25.35;;
34832;SDS011;55941;50.800;4.342;2022-08-19T03:56:23;46.15;;;27.25;;
34832;SDS011;55941;50.800;4.342;2022-08-19T03:58:53;36.83;;;26.88;;
34832;SDS011;55941;50.800;4.342;2022-08-19T04:01:21;50.63;;;28.52;;
34832;SDS011;55941;50.800;4.342;2022-08-19T04:03:48;44.90;;;26.13;;
34832;SDS011;55941;50.800;4.342;2022-08-19T04:06:19;44.03;;;26.25;;
34832;SDS011;55941;50.800;4.342;2022-08-19T04:08:47;43.67;;;25.48;;
34832;SDS011;55941;50.800;4.342;2022-08-19T04:11:21;48.53;;;26.88;;
34832;SDS011;55941;50.800;4.342;2022-08-19T04:13:49;48.25;;;26.48;;
34832;SDS011;55941;50.800;4.342;2022-08-19T04:16:20;49.53;;;28.02;;
34832;SDS011;55941;50.800;4.342;2022-08-19T04:18:47;43.20;;;26.10;;
34832;SDS011;55941;50.800;4.342;2022-08-19T04:21:18;50.88;;;25.63;;
34832;SDS011;55941;50.800;4.342;2022-08-19T04:23:49;41.33;;;26.45;;
34832;SDS011;55941;50.800;4.342;2022-08-19T04:26:17;43.17;;;23.25;;
34832;SDS011;55941;50.800;4.342;2022-08-19T04:28:46;44.45;;;25.60;;
34832;SDS011;55941;50.800;4.342;2022-08-19T04:31:16;42.78;;;24.27;;
34832;SDS011;55941;50.800;4.342;2022-08-19T04:33:52;48.45;;;24.13;;
34832;SDS011;55941;50.800;4.342;2022-08-19T04:36:22;46.78;;;24.42;;
34832;SDS011;55941;50.800;4.342;2022-08-19T04:38:53;45.42;;;23.88;;
34832;SDS011;55941;50.800;4.342;2022-08-19T04:41:23;48.35;;;25.63;;
34832;SDS011;55941;50.800;4.342;2022-08-19T04:44:23;52.03;;;24.88;;
34832;SDS011;55941;50.800;4.342;2022-08-19T04:46:49;40.58;;;25.23;;
34832;SDS011;55941;50.800;4.342;2022-08-19T04:49:16;42.72;;;25.27;;
34832;SDS011;55941;50.800;4.342;2022-08-19T04:51:44;43.75;;;25.23;;
34832;SDS011;55941;50.800;4.342;2022-08-19T04:54:13;41.67;;;26.95;;
34832;SDS011;55941;50.800;4.342;2022-08-19T04:56:40;49.45;;;27.27;;
34832;SDS011;55941;50.800;4.342;2022-08-19T04:59:06;48.38;;;27.85;;
34832;SDS011;55941;50.800;4.342;2022-08-19T05:01:33;42.55;;;28.30;;
34832;SDS011;55941;50.800;4.342;2022-08-19T05:04:00;56.00;;;30.40;;
34832;SDS011;55941;50.800;4.342;2022-08-19T05:06:29;49.03;;;29.20;;
34832;SDS011;55941;50.800;4.342;2022-08-19T05:08:56;47.35;;;27.67;;
34832;SDS011;55941;50.800;4.342;2022-08-19T05:11:23;40.22;;;27.98;;
34832;SDS011;55941;50.800;4.342;2022-08-19T05:13:53;41.95;;;26.90;;
34832;SDS011;55941;50.800;4.342;2022-08-19T05:16:21;46.85;;;27.08;;
34832;SDS011;55941;50.800;4.342;2022-08-19T05:18:48;36.95;;;24.88;;
34832;SDS011;55941;50.800;4.342;2022-08-19T05:21:34;41.58;;;24.98;;
34832;SDS011;55941;50.800;4.342;2022-08-19T05:24:19;40.35;;;25.23;;
34832;SDS011;55941;50.800;4.342;2022-08-19T05:26:47;52.05;;;25.85;;
34832;SDS011;55941;50.800;4.342;2022-08-19T05:29:15;43.00;;;25.25;;
34832;SDS011;55941;50.800;4.342;2022-08-19T05:31:44;39.92;;;23.45;;
34832;SDS011;55941;50.800;4.342;2022-08-19T05:34:10;37.28;;;23.10;;
34832;SDS011;55941;50.800;4.342;2022-08-19T05:36:39;33.10;;;21.05;;
34832;SDS011;55941;50.800;4.342;2022-08-19T05:39:08;40.60;;;21.33;;
34832;SDS011;55941;50.800;4.342;2022-08-19T05:41:41;30.67;;;21.00;;
34832;SDS011;55941;50.800;4.342;2022-08-19T05:44:08;33.58;;;20.08;;
34832;SDS011;55941;50.800;4.342;2022-08-19T05:46:35;33.47;;;18.10;;
34832;SDS011;55941;50.800;4.342;2022-08-19T05:49:03;31.70;;;19.38;;
34832;SDS011;55941;50.800;4.342;2022-08-19T05:51:31;34.10;;;19.35;;
34832;SDS011;55941;50.800;4.342;2022-08-19T05:53:59;34.88;;;18.15;;
34832;SDS011;55941;50.800;4.342;2022-08-19T05:56:26;30.25;;;17.33;;
34832;SDS011;55941;50.800;4.342;2022-08-19T05:58:51;25.52;;;16.55;;
34832;SDS011;55941;50.800;4.342;2022-08-19T06:01:19;25.83;;;15.20;;
34832;SDS011;55941;50.800;4.342;2022-08-19T06:03:45;25.10;;;14.77;;
34832;SDS011;55941;50.800;4.342;2022-08-19T06:06:13;21.98;;;13.10;;
34832;SDS011;55941;50.800;4.342;2022-08-19T06:08:40;20.35;;;11.35;;
34832;SDS011;55941;50.800;4.342;2022-08-19T06:11:19;24.23;;;11.43;;
34832;SDS011;55941;50.800;4.342;2022-08-19T06:13:48;21.83;;;10.60;;
34832;SDS011;55941;50.800;4.342;2022-08-19T06:16:20;23.02;;;11.55;;
34832;SDS011;55941;50.800;4.342;2022-08-19T06:18:50;21.67;;;10.05;;
34832;SDS011;55941;50.800;4.342;2022-08-19T06:21:18;18.95;;;9.93;;
34832;SDS011;55941;50.800;4.342;2022-08-19T06:23:45;17.58;;;10.05;;
34832;SDS011;55941;50.800;4.342;2022-08-19T06:26:12;18.10;;;9.75;;
34832;SDS011;55941;50.800;4.342;2022-08-19T06:28:38;13.73;;;8.02;;
34832;SDS011;55941;50.800;4.342;2022-08-19T06:31:11;19.20;;;9.18;;
34832;SDS011;55941;50.800;4.342;2022-08-19T06:33:39;19.23;;;8.52;;
34832;SDS011;55941;50.800;4.342;2022-08-19T06:36:07;26.55;;;8.82;;
34832;SDS011;55941;50.800;4.342;2022-08-19T06:38:33;26.88;;;8.27;;
34832;SDS011;55941;50.800;4.342;2022-08-19T06:41:03;25.75;;;8.82;;
34832;SDS011;55941;50.800;4.342;2022-08-19T06:43:29;16.27;;;7.68;;
34832;SDS011;55941;50.800;4.342;2022-08-19T06:45:55;14.80;;;8.40;;
34832;SDS011;55941;50.800;4.342;2022-08-19T06:48:22;20.65;;;8.43;;
34832;SDS011;55941;50.800;4.342;2022-08-19T06:50:48;23.08;;;8.40;;
34832;SDS011;55941;50.800;4.342;2022-08-19T06:53:16;34.85;;;10.23;;
34832;SDS011;55941;50.800;4.342;2022-08-19T06:55:44;34.90;;;9.68;;
34832;SDS011;55941;50.800;4.342;2022-08-19T06:58:10;32.70;;;10.57;;
34832;SDS011;55941;50.800;4.342;2022-08-19T07:00:36;32.42;;;10.63;;
34832;SDS011;55941;50.800;4.342;2022-08-19T07:03:03;23.33;;;10.02;;
34832;SDS011;55941;50.800;4.342;2022-08-19T07:05:29;28.83;;;10.13;;
34832;SDS011;55941;50.800;4.342;2022-08-19T07:07:55;23.73;;;11.18;;
34832;SDS011;55941;50.800;4.342;2022-08-19T07:10:22;24.83;;;9.95;;
34832;SDS011;55941;50.800;4.342;2022-08-19T07:12:48;25.65;;;10.27;;
34832;SDS011;55941;50.800;4.342;2022-08-19T07:15:15;24.27;;;11.07;;
34832;SDS011;55941;50.800;4.342;2022-08-19T07:17:41;26.92;;;11.02;;
34832;SDS011;55941;50.800;4.342;2022-08-19T07:20:08;26.10;;;10.25;;
34832;SDS011;55941;50.800;4.342;2022-08-19T07:22:35;21.15;;;9.75;;
34832;SDS011;55941;50.800;4.342;2022-08-19T07:25:02;24.48;;;10.35;;
34832;SDS011;55941;50.800;4.342;2022-08-19T07:27:30;28.27;;;10.35;;
34832;SDS011;55941;50.800;4.342;2022-08-19T07:29:56;31.92;;;11.40;;
34832;SDS011;55941;50.800;4.342;2022-08-19T07:32:22;19.90;;;9.15;;
34832;SDS011;55941;50.800;4.342;2022-08-19T07:34:51;19.98;;;9.48;;
34832;SDS011;55941;50.800;4.342;2022-08-19T07:37:17;20.58;;;9.20;;
34832;SDS011;55941;50.800;4.342;2022-08-19T07:39:43;17.25;;;7.90;;
34832;SDS011;55941;50.800;4.342;2022-08-19T07:42:10;19.80;;;7.95;;
34832;SDS011;55941;50.800;4.342;2022-08-19T07:44:36;17.27;;;7.70;;
34832;SDS011;55941;50.800;4.342;2022-08-19T07:47:03;15.35;;;7.38;;
34832;SDS011;55941;50.800;4.342;2022-08-19T07:49:29;16.25;;;7.38;;
34832;SDS011;55941;50.800;4.342;2022-08-19T07:52:02;17.52;;;7.15;;
34832;SDS011;55941;50.800;4.342;2022-08-19T07:54:31;15.50;;;7.65;;
34832;SDS011;55941;50.800;4.342;2022-08-19T07:57:01;18.48;;;7.45;;
34832;SDS011;55941;50.800;4.342;2022-08-19T07:59:27;19.08;;;7.72;;
34832;SDS011;55941;50.800;4.342;2022-08-19T08:01:53;22.98;;;7.70;;
34832;SDS011;55941;50.800;4.342;2022-08-19T08:04:21;14.73;;;6.93;;
34832;SDS011;55941;50.800;4.342;2022-08-19T08:07:06;18.55;;;7.20;;
34832;SDS011;55941;50.800;4.342;2022-08-19T08:09:51;14.50;;;7.20;;
34832;SDS011;55941;50.800;4.342;2022-08-19T08:12:22;14.75;;;6.97;;
34832;SDS011;55941;50.800;4.342;2022-08-19T08:14:53;18.30;;;6.85;;
34832;SDS011;55941;50.800;4.342;2022-08-19T08:17:24;12.13;;;6.45;;
34832;SDS011;55941;50.800;4.342;2022-08-19T08:19:51;19.38;;;6.57;;
34832;SDS011;55941;50.800;4.342;2022-08-19T08:22:21;12.75;;;5.93;;
34832;SDS011;55941;50.800;4.342;2022-08-19T08:25:08;15.02;;;6.35;;
34832;SDS011;55941;50.800;4.342;2022-08-19T08:27:41;16.27;;;6.55;;
34832;SDS011;55941;50.800;4.342;2022-08-19T08:30:14;15.20;;;5.35;;
34832;SDS011;55941;50.800;4.342;2022-08-19T08:32:43;13.15;;;5.97;;
34832;SDS011;55941;50.800;4.342;2022-08-19T08:35:11;17.83;;;5.15;;
34832;SDS011;55941;50.800;4.342;2022-08-19T08:37:40;12.05;;;5.32;;
34832;SDS011;55941;50.800;4.342;2022-08-19T08:40:07;14.50;;;6.10;;
34832;SDS011;55941;50.800;4.342;2022-08-19T08:42:57;18.15;;;5.90;;
34832;SDS011;55941;50.800;4.342;2022-08-19T08:45:33;18.98;;;5.68;;
34832;SDS011;55941;50.800;4.342;2022-08-19T08:50:56;15.75;;;5.15;;
34832;SDS011;55941;50.800;4.342;2022-08-19T08:53:24;15.30;;;5.93;;
34832;SDS011;55941;50.800;4.342;2022-08-19T08:55:50;15.52;;;5.38;;
34832;SDS011;55941;50.800;4.342;2022-08-19T08:58:27;11.68;;;5.43;;
34832;SDS011;55941;50.800;4.342;2022-08-19T09:01:09;10.02;;;5.70;;
34832;SDS011;55941;50.800;4.342;2022-08-19T09:03:37;15.23;;;5.28;;
34832;SDS011;55941;50.800;4.342;2022-08-19T09:11:34;10.80;;;5.10;;
34832;SDS011;55941;50.800;4.342;2022-08-19T09:14:07;11.75;;;4.38;;
34832;SDS011;55941;50.800;4.342;2022-08-19T09:16:38;15.55;;;5.10;;
34832;SDS011;55941;50.800;4.342;2022-08-19T09:19:06;10.95;;;4.70;;
34832;SDS011;55941;50.800;4.342;2022-08-19T09:21:33;18.58;;;5.25;;
34832;SDS011;55941;50.800;4.342;2022-08-19T09:24:02;9.88;;;5.05;;
34832;SDS011;55941;50.800;4.342;2022-08-19T09:26:29;12.05;;;5.38;;
34832;SDS011;55941;50.800;4.342;2022-08-19T09:28:57;16.60;;;5.60;;
34832;SDS011;55941;50.800;4.342;2022-08-19T09:31:26;9.75;;;5.40;;
34832;SDS011;55941;50.800;4.342;2022-08-19T09:33:54;13.38;;;5.28;;
34832;SDS011;55941;50.800;4.342;2022-08-19T09:36:26;11.55;;;5.65;;
34832;SDS011;55941;50.800;4.342;2022-08-19T09:38:58;11.63;;;6.03;;
34832;SDS011;55941;50.800;4.342;2022-08-19T09:41:25;9.30;;;5.70;;
34832;SDS011;55941;50.800;4.342;2022-08-19T09:43:52;13.90;;;5.53;;
34832;SDS011;55941;50.800;4.342;2022-08-19T09:46:21;10.40;;;5.50;;
34832;SDS011;55941;50.800;4.342;2022-08-19T09:48:49;12.02;;;4.53;;
34832;SDS011;55941;50.800;4.342;2022-08-19T09:51:19;8.30;;;4.50;;
34832;SDS011;55941;50.800;4.342;2022-08-19T09:53:47;7.15;;;4.53;;
34832;SDS011;55941;50.800;4.342;2022-08-19T09:56:19;10.73;;;5.50;;
34832;SDS011;55941;50.800;4.342;2022-08-19T09:58:46;10.73;;;4.40;;
34832;SDS011;55941;50.800;4.342;2022-08-19T10:01:18;9.90;;;5.38;;
34832;SDS011;55941;50.800;4.342;2022-08-19T10:03:47;12.13;;;4.75;;
34832;SDS011;55941;50.800;4.342;2022-08-19T10:06:14;9.13;;;4.57;;
34832;SDS011;55941;50.800;4.342;2022-08-19T10:08:41;9.23;;;5.60;;
34832;SDS011;55941;50.800;4.342;2022-08-19T10:11:07;13.65;;;5.40;;
34832;SDS011;55941;50.800;4.342;2022-08-19T10:13:34;10.18;;;5.60;;
34832;SDS011;55941;50.800;4.342;2022-08-19T10:16:03;7.22;;;5.28;;
34832;SDS011;55941;50.800;4.342;2022-08-19T10:18:34;10.23;;;6.25;;
34832;SDS011;55941;50.800;4.342;2022-08-19T10:21:11;12.80;;;6.60;;
34832;SDS011;55941;50.800;4.342;2022-08-19T10:23:40;14.73;;;6.18;;
34832;SDS011;55941;50.800;4.342;2022-08-19T10:26:22;9.07;;;5.90;;
34832;SDS011;55941;50.800;4.342;2022-08-19T10:28:50;12.30;;;6.55;;
34832;SDS011;55941;50.800;4.342;2022-08-19T10:31:18;11.32;;;6.90;;
34832;SDS011;55941;50.800;4.342;2022-08-19T10:33:48;14.32;;;6.72;;
34832;SDS011;55941;50.800;4.342;2022-08-19T10:36:19;12.90;;;6.43;;
34832;SDS011;55941;50.800;4.342;2022-08-19T10:38:49;9.60;;;6.07;;
34832;SDS011;55941;50.800;4.342;2022-08-19T10:41:17;15.90;;;6.53;;
34832;SDS011;55941;50.800;4.342;2022-08-19T10:43:47;13.02;;;5.78;;
34832;SDS011;55941;50.800;4.342;2022-08-19T10:46:15;12.30;;;6.45;;
34832;SDS011;55941;50.800;4.342;2022-08-19T10:48:41;9.38;;;6.97;;
34832;SDS011;55941;50.800;4.342;2022-08-19T10:51:10;17.55;;;7.43;;
34832;SDS011;55941;50.800;4.342;2022-08-19T10:53:55;12.52;;;7.05;;
34832;SDS011;55941;50.800;4.342;2022-08-19T10:56:21;14.95;;;6.97;;
34832;SDS011;55941;50.800;4.342;2022-08-19T10:59:05;9.15;;;6.05;;
34832;SDS011;55941;50.800;4.342;2022-08-19T11:01:33;10.23;;;6.28;;
34832;SDS011;55941;50.800;4.342;2022-08-19T11:04:00;11.48;;;6.35;;
34832;SDS011;55941;50.800;4.342;2022-08-19T11:06:28;10.55;;;7.57;;
34832;SDS011;55941;50.800;4.342;2022-08-19T11:08:55;16.17;;;8.25;;
34832;SDS011;55941;50.800;4.342;2022-08-19T11:11:21;14.23;;;7.97;;
34832;SDS011;55941;50.800;4.342;2022-08-19T11:13:48;9.90;;;8.00;;
34832;SDS011;55941;50.800;4.342;2022-08-19T11:16:16;13.57;;;8.18;;
34832;SDS011;55941;50.800;4.342;2022-08-19T11:18:45;15.38;;;8.90;;
34832;SDS011;55941;50.800;4.342;2022-08-19T11:21:14;22.77;;;8.52;;
34832;SDS011;55941;50.800;4.342;2022-08-19T11:23:47;18.98;;;8.38;;
34832;SDS011;55941;50.800;4.342;2022-08-19T11:26:15;21.77;;;7.38;;
34832;SDS011;55941;50.800;4.342;2022-08-19T11:28:42;11.38;;;6.88;;
34832;SDS011;55941;50.800;4.342;2022-08-19T11:31:11;14.48;;;6.30;;
34832;SDS011;55941;50.800;4.342;2022-08-19T11:33:42;13.38;;;6.65;;
34832;SDS011;55941;50.800;4.342;2022-08-19T11:36:08;13.73;;;6.68;;
34832;SDS011;55941;50.800;4.342;2022-08-19T11:38:35;13.43;;;5.63;;
34832;SDS011;55941;50.800;4.342;2022-08-19T11:41:03;11.50;;;5.80;;
34832;SDS011;55941;50.800;4.342;2022-08-19T11:43:32;11.65;;;6.18;;
34832;SDS011;55941;50.800;4.342;2022-08-19T11:45:59;12.68;;;5.95;;
34832;SDS011;55941;50.800;4.342;2022-08-19T11:48:28;10.95;;;5.90;;
34832;SDS011;55941;50.800;4.342;2022-08-19T11:50:54;8.32;;;4.90;;
34832;SDS011;55941;50.800;4.342;2022-08-19T11:53:21;8.98;;;5.22;;
34832;SDS011;55941;50.800;4.342;2022-08-19T11:55:48;7.45;;;4.82;;
34832;SDS011;55941;50.800;4.342;2022-08-19T11:58:14;8.55;;;4.43;;
34832;SDS011;55941;50.800;4.342;2022-08-19T12:00:43;15.80;;;5.13;;
34832;SDS011;55941;50.800;4.342;2022-08-19T12:03:10;12.30;;;4.82;;
34832;SDS011;55941;50.800;4.342;2022-08-19T12:05:38;14.85;;;4.25;;
34832;SDS011;55941;50.800;4.342;2022-08-19T12:08:05;8.50;;;3.97;;
34832;SDS011;55941;50.800;4.342;2022-08-19T12:10:31;6.20;;;3.70;;
34832;SDS011;55941;50.800;4.342;2022-08-19T12:13:00;8.45;;;3.70;;
34832;SDS011;55941;50.800;4.342;2022-08-19T12:15:27;6.22;;;3.70;;
34832;SDS011;55941;50.800;4.342;2022-08-19T12:17:54;15.73;;;4.03;;
34832;SDS011;55941;50.800;4.342;2022-08-19T12:20:21;10.82;;;3.10;;
34832;SDS011;55941;50.800;4.342;2022-08-19T12:22:48;11.55;;;3.50;;
34832;SDS011;55941;50.800;4.342;2022-08-19T12:25:13;5.90;;;2.95;;
34832;SDS011;55941;50.800;4.342;2022-08-19T12:27:39;11.50;;;2.55;;
34832;SDS011;55941;50.800;4.342;2022-08-19T12:30:06;5.32;;;2.35;;
34832;SDS011;55941;50.800;4.342;2022-08-19T12:32:34;8.00;;;2.42;;
34832;SDS011;55941;50.800;4.342;2022-08-19T12:35:00;10.70;;;2.30;;
34832;SDS011;55941;50.800;4.342;2022-08-19T12:37:26;5.43;;;1.80;;
34832;SDS011;55941;50.800;4.342;2022-08-19T12:39:52;7.15;;;2.00;;
34832;SDS011;55941;50.800;4.342;2022-08-19T12:42:18;4.60;;;1.50;;
34832;SDS011;55941;50.800;4.342;2022-08-19T12:44:47;10.55;;;2.35;;
34832;SDS011;55941;50.800;4.342;2022-08-19T12:47:13;7.32;;;2.08;;
34832;SDS011;55941;50.800;4.342;2022-08-19T12:49:39;12.43;;;2.45;;
34832;SDS011;55941;50.800;4.342;2022-08-19T12:52:06;8.63;;;2.40;;
34832;SDS011;55941;50.800;4.342;2022-08-19T12:54:33;6.72;;;1.88;;
34832;SDS011;55941;50.800;4.342;2022-08-19T12:57:00;11.40;;;2.00;;
34832;SDS011;55941;50.800;4.342;2022-08-19T12:59:30;8.02;;;1.75;;
34832;SDS011;55941;50.800;4.342;2022-08-19T13:01:56;2.80;;;1.20;;
34832;SDS011;55941;50.800;4.342;2022-08-19T13:04:22;4.20;;;1.50;;
34832;SDS011;55941;50.800;4.342;2022-08-19T13:06:49;3.88;;;1.20;;
34832;SDS011;55941;50.800;4.342;2022-08-19T13:09:15;3.58;;;1.00;;
34832;SDS011;55941;50.800;4.342;2022-08-19T13:11:44;4.20;;;1.00;;
34832;SDS011;55941;50.800;4.342;2022-08-19T13:14:10;3.95;;;1.10;;
34832;SDS011;55941;50.800;4.342;2022-08-19T13:16:36;7.22;;;1.05;;
34832;SDS011;55941;50.800;4.342;2022-08-19T13:19:02;6.25;;;0.82;;
34832;SDS011;55941;50.800;4.342;2022-08-19T13:21:30;4.80;;;0.90;;
34832;SDS011;55941;50.800;4.342;2022-08-19T13:23:56;3.92;;;1.15;;
34832;SDS011;55941;50.800;4.342;2022-08-19T13:26:22;5.22;;;1.27;;
34832;SDS011;55941;50.800;4.342;2022-08-19T13:28:48;8.50;;;1.30;;
34832;SDS011;55941;50.800;4.342;2022-08-19T13:31:34;14.05;;;1.30;;
34832;SDS011;55941;50.800;4.342;2022-08-19T13:34:25;5.30;;;1.25;;
34832;SDS011;55941;50.800;4.342;2022-08-19T13:36:57;8.43;;;1.55;;
34832;SDS011;55941;50.800;4.342;2022-08-19T13:39:23;2.00;;;1.10;;
34832;SDS011;55941;50.800;4.342;2022-08-19T13:41:49;6.53;;;1.65;;
34832;SDS011;55941;50.800;4.342;2022-08-19T13:44:16;6.30;;;1.20;;
34832;SDS011;55941;50.800;4.342;2022-08-19T13:46:46;6.25;;;1.10;;
34832;SDS011;55941;50.800;4.342;2022-08-19T13:49:13;4.93;;;1.20;;
34832;SDS011;55941;50.800;4.342;2022-08-19T13:51:40;1.98;;;1.00;;
34832;SDS011;55941;50.800;4.342;2022-08-19T13:54:10;6.72;;;1.08;;
34832;SDS011;55941;50.800;4.342;2022-08-19T13:56:43;4.00;;;1.02;;
34832;SDS011;55941;50.800;4.342;2022-08-19T13:59:10;1.02;;;0.80;;
34832;SDS011;55941;50.800;4.342;2022-08-19T14:01:37;4.47;;;0.60;;
34832;SDS011;55941;50.800;4.342;2022-08-19T14:04:03;5.40;;;0.82;;
34832;SDS011;55941;50.800;4.342;2022-08-19T14:06:32;7.22;;;1.20;;
34832;SDS011;55941;50.800;4.342;2022-08-19T14:08:58;3.50;;;1.40;;
34832;SDS011;55941;50.800;4.342;2022-08-19T14:11:24;4.68;;;1.40;;
34832;SDS011;55941;50.800;4.342;2022-08-19T14:13:51;5.82;;;1.15;;
34832;SDS011;55941;50.800;4.342;2022-08-19T14:16:18;4.35;;;1.30;;
34832;SDS011;55941;50.800;4.342;2022-08-19T14:18:44;7.13;;;1.40;;
34832;SDS011;55941;50.800;4.342;2022-08-19T14:21:15;4.18;;;1.40;;
34832;SDS011;55941;50.800;4.342;2022-08-19T14:23:42;2.97;;;1.20;;
34832;SDS011;55941;50.800;4.342;2022-08-19T14:26:10;2.80;;;1.30;;
34832;SDS011;55941;50.800;4.342;2022-08-19T14:28:39;5.07;;;1.00;;
34832;SDS011;55941;50.800;4.342;2022-08-19T14:31:07;4.70;;;1.48;;
34832;SDS011;55941;50.800;4.342;2022-08-19T14:33:34;1.75;;;1.08;;
34832;SDS011;55941;50.800;4.342;2022-08-19T14:36:00;2.35;;;0.98;;
34832;SDS011;55941;50.800;4.342;2022-08-19T14:38:26;1.83;;;1.08;;
34832;SDS011;55941;50.800;4.342;2022-08-19T14:40:56;3.45;;;1.25;;
34832;SDS011;55941;50.800;4.342;2022-08-19T14:43:33;2.67;;;1.20;;
34832;SDS011;55941;50.800;4.342;2022-08-19T14:45:59;3.72;;;1.50;;
34832;SDS011;55941;50.800;4.342;2022-08-19T14:48:25;5.68;;;1.38;;